Time;durP1;ratioP1;P1;durP2;ratioP2;P2;SDS_P1;SDS_P2;PMS_P1;PMS_P2;Temp;Humidity;BMP_temperature;BMP_pressure;BME280_temperature;BME280_humidity;BME280_pressure;Samples;Min_cycle;Max_cycle;Signal;HPM_P1;HPM_P2
2021/10/17 00:01:46;;;;;;;0.20;0.20;;;;;;;13.55;54.44;102117.69;5034824;28;20030;-89
2021/10/17 00:04:13;;;;;;;0.75;0.75;;;;;;;13.59;54.63;102116.78;5034962;28;20034;-86
2021/10/17 00:06:39;;;;;;;0.10;0.10;;;;;;;13.55;54.29;102115.03;5035072;28;20036;-89
2021/10/17 00:09:06;;;;;;;0.20;0.20;;;;;;;13.57;54.39;102115.91;5035590;28;20082;-89
2021/10/17 00:11:32;;;;;;;0.00;0.00;;;;;;;13.57;54.15;102112.34;5034850;28;20413;-89
2021/10/17 00:13:59;;;;;;;2.17;0.75;;;;;;;13.64;53.97;102108.72;5034114;28;20025;-90
2021/10/17 00:16:26;;;;;;;0.10;0.10;;;;;;;13.64;54.42;102110.50;5035345;28;20033;-90
2021/10/17 00:18:53;;;;;;;0.30;0.30;;;;;;;13.64;53.90;102110.50;5033812;28;20026;-90
2021/10/17 00:21:22;;;;;;;0.30;0.30;;;;;;;13.65;54.11;102106.94;5034799;28;20029;-90
2021/10/17 00:23:48;;;;;;;0.10;0.10;;;;;;;13.65;54.23;102107.81;5035253;28;20030;-89
2021/10/17 00:26:15;;;;;;;0.03;0.03;;;;;;;13.62;54.31;102109.63;5034248;28;20033;-88
2021/10/17 00:28:41;;;;;;;0.10;0.10;;;;;;;13.64;54.12;102107.84;5034316;28;20057;-89
2021/10/17 00:31:08;;;;;;;0.20;0.20;;;;;;;13.70;54.52;102113.97;5034031;28;20087;-89
2021/10/17 00:33:34;;;;;;;0.20;0.20;;;;;;;13.68;54.15;102106.91;5034054;28;20107;-90
2021/10/17 00:36:01;;;;;;;0.10;0.10;;;;;;;13.66;53.86;102106.91;5034044;28;20056;-89
2021/10/17 00:38:29;;;;;;;0.15;0.15;;;;;;;13.66;53.94;102100.72;5033846;28;20079;-88
2021/10/17 00:40:56;;;;;;;0.00;0.00;;;;;;;13.64;54.15;102105.19;5034215;28;20030;-87
2021/10/17 00:43:23;;;;;;;0.10;0.10;;;;;;;13.70;54.23;102107.75;5034644;28;20057;-87
2021/10/17 00:45:50;;;;;;;0.10;0.10;;;;;;;13.75;54.20;102108.59;5034717;28;20535;-90
2021/10/17 00:48:16;;;;;;;0.10;0.10;;;;;;;13.74;54.36;102110.38;5035117;28;20026;-90
2021/10/17 00:50:50;;;;;;;0.05;0.05;;;;;;;13.73;54.35;102107.72;5036294;28;20030;-89
2021/10/17 00:53:21;;;;;;;0.10;0.10;;;;;;;13.71;54.30;102099.75;5035233;28;20029;-86
2021/10/17 00:55:48;;;;;;;0.10;0.10;;;;;;;13.73;54.33;102100.63;5036097;28;20113;-88
2021/10/17 00:58:17;;;;;;;0.10;0.10;;;;;;;13.79;54.09;102107.63;5035079;28;20034;-90
2021/10/17 01:00:44;;;;;;;0.10;0.10;;;;;;;13.80;54.48;102104.06;5036067;28;20030;-86
2021/10/17 01:03:13;;;;;;;0.47;0.47;;;;;;;13.76;54.29;102102.34;5035815;28;20033;-90
2021/10/17 01:05:39;;;;;;;0.10;0.10;;;;;;;13.77;54.04;102104.13;5034112;28;20104;-90
2021/10/17 01:08:06;;;;;;;0.10;0.10;;;;;;;13.77;54.23;102105.88;5033666;28;20135;-90
2021/10/17 01:10:32;;;;;;;0.10;0.10;;;;;;;13.79;54.23;102107.63;5033976;28;20029;-89
2021/10/17 01:12:59;;;;;;;0.10;0.10;;;;;;;13.76;54.28;102099.69;5033851;28;20025;-89
2021/10/17 01:15:25;;;;;;;0.10;0.10;;;;;;;13.75;54.92;102098.78;5033861;28;20030;-88
2021/10/17 01:17:52;;;;;;;0.10;0.10;;;;;;;13.79;54.71;102093.44;5033953;28;20037;-89
2021/10/17 01:20:19;;;;;;;0.10;0.10;;;;;;;13.80;54.71;102092.56;5034501;28;20112;-88
2021/10/17 01:22:46;;;;;;;0.10;0.10;;;;;;;13.80;54.92;102088.09;5033909;28;20072;-90
2021/10/17 01:25:13;;;;;;;0.15;0.15;;;;;;;13.79;54.88;102091.66;5033799;28;20105;-90
2021/10/17 01:27:40;;;;;;;0.10;0.10;;;;;;;13.79;55.11;102086.31;5033961;28;20030;-88
2021/10/17 01:30:08;;;;;;;0.10;0.10;;;;;;;13.80;55.14;102077.44;5033430;28;20167;-90
2021/10/17 01:32:34;;;;;;;1.30;1.30;;;;;;;13.80;55.57;102077.44;5033869;28;20029;-88
2021/10/17 01:35:01;;;;;;;0.10;0.10;;;;;;;13.80;55.59;102077.44;5033431;28;20024;-90
2021/10/17 01:37:28;;;;;;;0.20;0.20;;;;;;;13.82;55.07;102075.66;5033719;28;20065;-88
2021/10/17 01:40:01;;;;;;;0.10;0.10;;;;;;;13.84;55.27;102083.59;5033772;28;20461;-85
2021/10/17 01:42:31;;;;;;;0.40;0.40;;;;;;;13.82;55.65;102078.31;5034186;28;20078;-86
2021/10/17 01:44:58;;;;;;;0.10;0.10;;;;;;;13.82;55.70;102077.41;5034107;28;20041;-87
2021/10/17 01:47:24;;;;;;;0.10;0.10;;;;;;;13.80;55.64;102077.44;5034331;28;20025;-88
2021/10/17 01:49:51;;;;;;;0.10;0.10;;;;;;;13.83;56.17;102079.16;5033578;28;20107;-89
2021/10/17 01:52:17;;;;;;;0.10;0.10;;;;;;;13.80;55.40;102087.22;5032949;28;20021;-87
2021/10/17 01:54:44;;;;;;;0.10;0.10;;;;;;;13.80;55.43;102077.44;5033392;28;20137;-90
2021/10/17 01:57:10;;;;;;;0.15;0.15;;;;;;;13.80;55.67;102077.44;5032741;28;20111;-90
2021/10/17 01:59:37;;;;;;;3.30;2.83;;;;;;;13.77;55.18;102073.94;5033867;28;20033;-88
2021/10/17 02:02:04;;;;;;;0.10;0.10;;;;;;;13.82;55.32;102074.75;5033429;28;20056;-89
2021/10/17 02:04:31;;;;;;;0.00;0.00;;;;;;;13.82;55.31;102078.31;5035113;28;20025;-90
2021/10/17 02:07:01;;;;;;;0.00;0.00;;;;;;;13.79;55.00;102072.13;5037107;28;20116;-86
2021/10/17 02:09:27;;;;;;;0.65;0.65;;;;;;;13.71;54.61;102066.91;5036924;28;20527;-86
2021/10/17 02:11:54;;;;;;;1.70;1.05;;;;;;;13.79;54.53;102075.66;5036526;28;20029;-90
2021/10/17 02:14:22;;;;;;;0.32;0.32;;;;;;;13.79;55.17;102067.69;5036582;28;20484;-89
2021/10/17 02:16:49;;;;;;;0.10;0.10;;;;;;;13.80;55.04;102074.78;5036567;28;20066;-86
2021/10/17 02:19:15;;;;;;;10.85;3.70;;;;;;;13.81;55.17;102071.22;5037302;28;20036;-90
2021/10/17 02:21:42;;;;;;;2.97;1.60;;;;;;;13.83;55.16;102071.19;5039214;28;20025;-90
2021/10/17 02:24:11;;;;;;;0.47;0.47;;;;;;;13.82;54.84;102062.31;5039184;28;20033;-89
2021/10/17 02:26:38;;;;;;;0.32;0.32;;;;;;;13.82;55.07;102065.00;5036437;28;20033;-88
2021/10/17 02:29:06;;;;;;;0.10;0.10;;;;;;;13.86;55.05;102066.69;5037117;28;20546;-89
2021/10/17 02:31:33;;;;;;;0.05;0.05;;;;;;;13.87;55.86;102072.91;5036645;28;20104;-89
2021/10/17 02:33:59;;;;;;;0.10;0.10;;;;;;;13.89;56.04;102063.09;5037701;28;20071;-88
2021/10/17 02:36:26;;;;;;;0.88;0.40;;;;;;;13.88;56.17;102070.22;5036829;28;20045;-89
2021/10/17 02:38:52;;;;;;;0.10;0.10;;;;;;;13.84;55.70;102063.16;5036598;28;20383;-90
2021/10/17 02:41:19;;;;;;;0.10;0.10;;;;;;;13.85;55.99;102064.06;5036561;28;20112;-89
2021/10/17 02:43:46;;;;;;;0.10;0.10;;;;;;;13.83;56.40;102061.44;5037659;28;20044;-88
2021/10/17 02:46:13;;;;;;;0.20;0.20;;;;;;;13.82;56.35;102065.00;5037535;28;20041;-89
2021/10/17 02:48:40;;;;;;;10.45;1.00;;;;;;;13.81;55.96;102057.91;5036471;28;20055;-88
2021/10/17 02:51:06;;;;;;;0.10;0.10;;;;;;;13.82;56.65;102061.41;5036026;28;20037;-86
2021/10/17 02:53:33;;;;;;;0.35;0.35;;;;;;;13.78;55.68;102065.91;5036327;28;20457;-89
2021/10/17 02:56:00;;;;;;;1.77;1.65;;;;;;;13.75;55.50;102071.28;5034753;28;20029;-88
2021/10/17 02:58:26;;;;;;;0.10;0.10;;;;;;;13.77;55.42;102065.94;5035746;28;20025;-88
2021/10/17 03:00:53;;;;;;;0.25;0.25;;;;;;;13.75;55.32;102057.97;5036569;28;20029;-88
2021/10/17 03:03:20;;;;;;;0.10;0.10;;;;;;;13.72;55.66;102061.56;5036160;28;20108;-88
2021/10/17 03:05:47;;;;;;;0.08;0.08;;;;;;;13.71;55.18;102050.94;5036362;28;20037;-86
2021/10/17 03:08:13;;;;;;;0.10;0.10;;;;;;;13.67;55.34;102043.88;5035990;28;20048;-88
2021/10/17 03:10:40;;;;;;;0.10;0.10;;;;;;;13.64;55.36;102043.94;5035565;28;20068;-89
2021/10/17 03:13:06;;;;;;;0.20;0.20;;;;;;;13.66;55.14;102047.47;5035723;28;20030;-89
2021/10/17 03:15:33;;;;;;;0.10;0.10;;;;;;;13.64;55.33;102035.94;5035713;28;20030;-90
2021/10/17 03:18:00;;;;;;;0.10;0.10;;;;;;;13.59;55.09;102049.31;5035475;28;20111;-89
2021/10/17 03:20:26;;;;;;;0.00;0.00;;;;;;;13.63;55.13;102048.34;5035516;28;20525;-88
2021/10/17 03:22:53;;;;;;;0.10;0.10;;;;;;;13.65;55.22;102040.38;5035015;28;20026;-89
2021/10/17 03:25:19;;;;;;;0.10;0.10;;;;;;;13.61;55.57;102039.53;5035224;28;20025;-89
2021/10/17 03:27:46;;;;;;;0.10;0.10;;;;;;;13.64;55.21;102039.47;5035137;28;20021;-89
2021/10/17 03:30:14;;;;;;;0.10;0.10;;;;;;;13.64;55.49;102038.59;5035422;28;20033;-88
2021/10/17 03:32:40;;;;;;;2.80;1.20;;;;;;;13.65;55.44;102035.03;5035053;28;20026;-89
2021/10/17 03:35:07;;;;;;;0.10;0.10;;;;;;;13.63;55.59;102031.50;5034865;28;20079;-90
2021/10/17 03:37:34;;;;;;;0.10;0.10;;;;;;;13.66;55.05;102031.47;5034941;28;20408;-90
2021/10/17 03:40:01;;;;;;;0.35;0.35;;;;;;;13.67;55.30;102033.22;5035136;28;20079;-90
2021/10/17 03:42:28;;;;;;;0.10;0.10;;;;;;;13.67;55.29;102034.13;5035225;28;20377;-89
2021/10/17 03:44:55;;;;;;;1.35;0.52;;;;;;;13.71;55.82;102037.63;5034881;28;20358;-90
2021/10/17 03:47:21;;;;;;;0.10;0.10;;;;;;;13.68;55.49;102029.66;5034672;28;20108;-89
2021/10/17 03:49:48;;;;;;;0.08;0.08;;;;;;;13.73;56.05;102033.13;5035370;28;20030;-88
2021/10/17 03:52:15;;;;;;;0.20;0.20;;;;;;;13.71;55.50;102025.16;5034820;28;20025;-89
2021/10/17 03:54:43;;;;;;;0.40;0.40;;;;;;;13.72;55.80;102036.69;5034788;28;20057;-89
2021/10/17 03:57:11;;;;;;;5.93;3.20;;;;;;;13.77;55.63;102039.31;5034138;28;20092;-89
2021/10/17 03:59:37;;;;;;;0.10;0.10;;;;;;;13.76;55.75;102027.78;5034041;28;20401;-89
2021/10/17 04:02:04;;;;;;;0.10;0.10;;;;;;;13.77;55.79;102029.53;5034466;28;20108;-89
2021/10/17 04:04:30;;;;;;;0.20;0.20;;;;;;;13.78;55.96;102028.63;5034704;28;20120;-90
2021/10/17 04:06:57;;;;;;;0.10;0.10;;;;;;;13.67;55.44;102023.47;5034233;28;20029;-88
2021/10/17 04:09:23;;;;;;;0.15;0.15;;;;;;;13.71;55.32;102024.31;5034566;28;20030;-88
2021/10/17 04:11:51;;;;;;;0.10;0.10;;;;;;;13.69;54.95;102026.09;5034136;28;20041;-90
2021/10/17 04:14:18;;;;;;;0.30;0.30;;;;;;;13.69;55.10;102028.75;5034030;28;20076;-89
2021/10/17 04:16:44;;;;;;;0.10;0.10;;;;;;;13.69;54.95;102023.44;5033831;28;20022;-90
2021/10/17 04:19:10;;;;;;;1.95;1.85;;;;;;;13.67;55.12;102025.22;5034235;28;20028;-89
2021/10/17 04:21:37;;;;;;;0.30;0.30;;;;;;;13.70;55.09;102022.53;5034097;28;20021;-88
2021/10/17 04:24:03;;;;;;;0.10;0.10;;;;;;;13.69;55.04;102024.31;5033904;28;20030;-89
2021/10/17 04:26:30;;;;;;;0.52;0.52;;;;;;;13.70;55.26;102012.75;5033414;28;20032;-90
2021/10/17 04:28:56;;;;;;;0.95;0.95;;;;;;;13.71;54.94;102008.31;5034017;28;20075;-89
2021/10/17 04:31:23;;;;;;;0.22;0.22;;;;;;;13.67;54.97;102014.56;5033637;28;20057;-90
2021/10/17 04:33:49;;;;;;;0.00;0.00;;;;;;;13.69;55.12;102018.97;5033998;28;20025;-89
2021/10/17 04:36:16;;;;;;;0.50;0.50;;;;;;;13.70;54.83;102015.41;5033901;28;20041;-89
2021/10/17 04:38:42;;;;;;;1.90;1.80;;;;;;;13.70;54.47;102017.22;5034313;28;20076;-90
2021/10/17 04:41:08;;;;;;;0.90;0.90;;;;;;;13.65;54.53;102014.59;5034026;28;20029;-89
2021/10/17 04:43:35;;;;;;;1.60;1.10;;;;;;;13.71;54.25;102019.84;5033957;28;20540;-88
2021/10/17 04:46:03;;;;;;;0.15;0.15;;;;;;;13.71;54.65;102018.97;5033803;28;20026;-89
2021/10/17 04:48:29;;;;;;;0.10;0.10;;;;;;;13.69;54.67;102016.31;5033859;28;20025;-88
2021/10/17 04:50:55;;;;;;;0.98;0.70;;;;;;;13.65;54.17;102021.72;5033693;28;20057;-87
2021/10/17 04:53:22;;;;;;;0.10;0.10;;;;;;;13.65;53.66;102024.38;5033796;28;20025;-89
2021/10/17 04:55:48;;;;;;;0.10;0.10;;;;;;;13.67;54.26;102011.91;5033934;28;20090;-89
2021/10/17 04:58:15;;;;;;;0.00;0.00;;;;;;;13.74;54.15;102008.25;5033755;28;20492;-90
2021/10/17 05:00:41;;;;;;;20.27;1.23;;;;;;;13.75;54.32;102010.91;5033617;28;20037;-88
2021/10/17 05:03:08;;;;;;;0.10;0.10;;;;;;;13.78;54.36;102015.28;5033435;28;20033;-89
2021/10/17 05:05:34;;;;;;;0.10;0.10;;;;;;;13.79;54.56;102017.06;5032267;28;20034;-89
2021/10/17 05:08:02;;;;;;;0.10;0.10;;;;;;;13.78;54.11;102028.63;5033721;28;20461;-89
2021/10/17 05:10:29;;;;;;;0.10;0.10;;;;;;;13.76;54.53;102027.78;5033751;28;20380;-89
2021/10/17 05:12:55;;;;;;;0.10;0.10;;;;;;;13.81;54.00;102027.72;5033413;28;20547;-90
2021/10/17 05:15:22;;;;;;;0.10;0.10;;;;;;;13.79;54.43;102033.03;5032946;28;20033;-90
2021/10/17 05:17:48;;;;;;;0.10;0.10;;;;;;;13.79;53.80;102030.38;5033586;28;20033;-90
2021/10/17 05:20:14;;;;;;;0.20;0.20;;;;;;;13.83;54.37;102025.91;5033763;28;20037;-89
2021/10/17 05:22:41;;;;;;;0.10;0.10;;;;;;;13.79;54.12;102027.72;5033645;28;20053;-89
2021/10/17 05:25:07;;;;;;;0.10;0.10;;;;;;;13.68;54.64;102019.00;5033294;28;20025;-89
2021/10/17 05:27:34;;;;;;;0.03;0.03;;;;;;;13.78;54.52;102022.41;5033637;28;20076;-87
2021/10/17 05:30:00;;;;;;;1.00;0.90;;;;;;;13.81;54.36;102027.72;5033598;28;20025;-89
2021/10/17 05:32:26;;;;;;;0.10;0.10;;;;;;;13.81;54.34;102038.38;5034028;28;20025;-88
2021/10/17 05:34:53;;;;;;;0.10;0.10;;;;;;;13.82;54.34;102030.34;5034991;28;20096;-90
2021/10/17 05:37:19;;;;;;;1.17;1.17;;;;;;;13.86;54.47;102033.84;5033628;28;20029;-89
2021/10/17 05:39:45;;;;;;;0.20;0.20;;;;;;;13.86;54.93;102034.72;5036197;28;20368;-90
2021/10/17 05:42:12;;;;;;;0.17;0.17;;;;;;;13.85;54.62;102040.94;5037509;28;20036;-90
2021/10/17 05:44:38;;;;;;;0.10;0.10;;;;;;;13.84;54.58;102040.97;5036598;28;20553;-89
2021/10/17 05:47:04;;;;;;;0.00;0.00;;;;;;;13.79;54.46;102035.72;5037045;28;20459;-89
2021/10/17 05:49:31;;;;;;;1.35;0.82;;;;;;;13.82;54.61;102042.78;5037350;28;20033;-88
2021/10/17 05:51:57;;;;;;;0.10;0.10;;;;;;;13.80;54.85;102045.47;5037415;28;20120;-89
2021/10/17 05:54:23;;;;;;;0.00;0.00;;;;;;;13.82;54.96;102049.00;5036880;28;20026;-89
2021/10/17 05:56:49;;;;;;;0.00;0.00;;;;;;;13.80;55.07;102044.59;5036545;28;20038;-89
2021/10/17 05:59:17;;;;;;;0.63;0.63;;;;;;;13.84;54.84;102047.19;5036833;28;20461;-87
2021/10/17 06:01:43;;;;;;;0.00;0.00;;;;;;;13.81;55.29;102041.03;5036703;28;20041;-88
2021/10/17 06:04:10;;;;;;;0.10;0.10;;;;;;;13.86;54.79;102040.06;5036702;28;20029;-90
2021/10/17 06:06:42;;;;;;;0.10;0.10;;;;;;;13.92;54.98;102041.75;5036957;28;20475;-91
2021/10/17 06:09:09;;;;;;;0.10;0.10;;;;;;;13.89;55.18;102045.34;5036683;28;20040;-89
2021/10/17 06:11:36;;;;;;;0.68;0.68;;;;;;;13.93;55.29;102056.81;5036562;28;20026;-90
2021/10/17 06:14:03;;;;;;;0.15;0.15;;;;;;;13.91;55.96;102053.31;5036716;28;20112;-89
2021/10/17 06:16:30;;;;;;;3.03;1.48;;;;;;;13.91;55.92;102051.53;5036640;28;20030;-90
2021/10/17 06:18:56;;;;;;;2.08;0.90;;;;;;;13.95;56.12;102054.16;5036121;28;20087;-90
2021/10/17 06:21:22;;;;;;;0.70;0.70;;;;;;;13.94;56.09;102063.91;5036333;28;20026;-90
2021/10/17 06:23:49;;;;;;;0.10;0.10;;;;;;;13.96;56.01;102058.59;5035926;28;20120;-90
2021/10/17 06:26:15;;;;;;;0.68;0.68;;;;;;;13.97;56.01;102065.66;5035901;28;20040;-89
2021/10/17 06:28:42;;;;;;;0.10;0.10;;;;;;;13.98;56.01;102065.66;5036252;28;20075;-89
2021/10/17 06:31:08;;;;;;;0.10;0.10;;;;;;;13.99;56.06;102070.06;5035751;28;20489;-90
2021/10/17 06:33:34;;;;;;;0.10;0.10;;;;;;;14.00;56.18;102070.94;5036642;28;20041;-89
2021/10/17 06:36:00;;;;;;;0.10;0.10;;;;;;;14.01;55.69;102068.25;5035420;28;20057;-89
2021/10/17 06:38:27;;;;;;;0.00;0.00;;;;;;;14.05;56.19;102074.44;5036324;28;20128;-88
2021/10/17 06:40:53;;;;;;;1.92;1.00;;;;;;;14.07;55.84;102077.97;5035849;28;20046;-89
2021/10/17 06:43:19;;;;;;;0.10;0.10;;;;;;;14.10;55.91;102077.91;5035727;28;20033;-89
2021/10/17 06:45:46;;;;;;;0.85;0.77;;;;;;;14.10;56.36;102080.56;5035727;28;20029;-89
2021/10/17 06:48:12;;;;;;;0.30;0.30;;;;;;;14.15;55.80;102073.38;5036265;28;20037;-88
2021/10/17 06:50:38;;;;;;;0.65;0.40;;;;;;;14.10;55.77;102080.56;5034870;28;20033;-89
2021/10/17 06:53:04;;;;;;;0.00;0.00;;;;;;;14.17;55.74;102076.03;5036035;28;20037;-88
2021/10/17 06:55:31;;;;;;;0.10;0.10;;;;;;;14.16;56.08;102082.28;5035239;28;20396;-88
2021/10/17 06:57:57;;;;;;;0.30;0.30;;;;;;;14.17;55.35;102074.25;5035538;28;20029;-88
2021/10/17 07:00:23;;;;;;;0.10;0.10;;;;;;;14.19;55.46;102075.13;5035489;28;20053;-87
2021/10/17 07:02:49;;;;;;;0.35;0.35;;;;;;;14.15;55.80;102075.16;5036523;28;20116;-88
2021/10/17 07:05:16;;;;;;;0.10;0.10;;;;;;;14.14;55.12;102076.94;5035374;28;20045;-88
2021/10/17 07:07:42;;;;;;;0.10;0.10;;;;;;;14.16;55.26;102064.47;5036072;28;20036;-88
2021/10/17 07:10:08;;;;;;;0.03;0.03;;;;;;;14.14;55.51;102076.06;5035586;28;20039;-87
2021/10/17 07:12:35;;;;;;;0.10;0.10;;;;;;;14.18;55.23;102067.13;5035636;28;20033;-88
2021/10/17 07:15:01;;;;;;;0.30;0.22;;;;;;;14.19;55.50;102075.13;5035288;28;20033;-88
2021/10/17 07:17:28;;;;;;;0.10;0.10;;;;;;;14.29;55.53;102074.94;5035360;28;20034;-89
2021/10/17 07:19:54;;;;;;;0.10;0.10;;;;;;;14.27;55.09;102074.97;5035463;28;20025;-91
2021/10/17 07:22:20;;;;;;;0.10;0.10;;;;;;;14.31;55.41;102076.69;5035309;28;20036;-92
2021/10/17 07:24:46;;;;;;;0.80;0.80;;;;;;;14.34;55.55;102084.66;5035192;28;20061;-86
2021/10/17 07:27:13;;;;;;;0.10;0.10;;;;;;;14.39;55.21;102081.88;5035379;28;20025;-91
2021/10/17 07:29:39;;;;;;;0.10;0.10;;;;;;;14.42;55.33;102086.28;5034981;28;20068;-89
2021/10/17 07:32:06;;;;;;;0.20;0.20;;;;;;;14.44;54.96;102085.34;5035112;28;20104;-90
2021/10/17 07:34:32;;;;;;;0.40;0.40;;;;;;;14.44;55.15;102090.69;5035255;28;20053;-88
2021/10/17 07:36:59;;;;;;;2.75;1.25;;;;;;;14.48;55.14;102092.41;5034856;28;20037;-87
2021/10/17 07:39:25;;;;;;;0.20;0.20;;;;;;;14.44;55.18;102098.69;5035079;28;20568;-87
2021/10/17 07:41:51;;;;;;;0.20;0.20;;;;;;;14.45;55.03;102092.44;5035180;28;20037;-88
2021/10/17 07:44:17;;;;;;;0.85;0.85;;;;;;;14.43;55.16;102099.63;5034966;28;20021;-87
2021/10/17 07:46:44;;;;;;;1.10;1.08;;;;;;;14.52;55.05;102095.91;5032276;22;20042;-80
2021/10/17 07:49:10;;;;;;;0.10;0.10;;;;;;;14.57;55.10;102092.25;5013761;28;20378;-79
2021/10/17 07:51:37;;;;;;;2.83;1.75;;;;;;;14.63;55.46;102090.38;5013969;28;20037;-79
2021/10/17 07:54:03;;;;;;;0.10;0.10;;;;;;;14.64;56.42;102092.16;5011781;28;20033;-81
2021/10/17 07:56:29;;;;;;;0.10;0.10;;;;;;;14.67;55.90;102090.34;5028362;28;20044;-80
2021/10/17 07:58:56;;;;;;;0.20;0.20;;;;;;;14.67;56.99;102086.81;5020548;28;20378;-79
2021/10/17 08:01:22;;;;;;;0.25;0.25;;;;;;;14.75;56.51;102090.22;5030365;28;20022;-80
2021/10/17 08:03:49;;;;;;;0.40;0.40;;;;;;;14.80;57.04;102082.13;5026640;28;20104;-82
2021/10/17 08:06:15;;;;;;;0.10;0.10;;;;;;;14.82;56.82;102083.88;5013569;28;20037;-81
2021/10/17 08:08:41;;;;;;;0.10;0.10;;;;;;;14.92;56.16;102089.06;5013550;28;20034;-83
2021/10/17 08:11:07;;;;;;;1.50;1.40;;;;;;;14.95;56.57;102089.84;5013636;28;20041;-81
2021/10/17 08:13:34;;;;;;;0.20;0.20;;;;;;;15.00;56.45;102084.44;5010108;28;20053;-81
2021/10/17 08:16:00;;;;;;;0.75;0.52;;;;;;;15.05;56.38;102082.56;5011623;28;20034;-81
2021/10/17 08:18:26;;;;;;;0.10;0.10;;;;;;;15.11;56.35;102087.78;5013405;28;20087;-81
2021/10/17 08:20:53;;;;;;;0.00;0.00;;;;;;;15.11;55.76;102087.78;5009242;28;20052;-81
2021/10/17 08:23:19;;;;;;;0.30;0.30;;;;;;;15.22;55.66;102089.38;5019395;28;20021;-81
2021/10/17 08:25:46;;;;;;;0.20;0.20;;;;;;;15.26;55.55;102091.94;5027978;28;20033;-81
2021/10/17 08:28:14;;;;;;;0.32;0.32;;;;;;;15.28;55.43;102094.59;4999272;28;20049;-81
2021/10/17 08:30:40;;;;;;;5.72;0.55;;;;;;;15.37;55.82;102092.59;5013313;28;20485;-82
2021/10/17 08:33:07;;;;;;;0.57;0.57;;;;;;;15.39;54.93;102087.25;5019288;28;20037;-80
2021/10/17 08:35:33;;;;;;;0.15;0.15;;;;;;;15.39;55.06;102084.59;5016585;28;20030;-81
2021/10/17 08:37:59;;;;;;;0.35;0.35;;;;;;;15.45;55.47;102087.13;5022509;28;20121;-80
2021/10/17 08:40:25;;;;;;;0.60;0.47;;;;;;;15.52;55.24;102087.88;5019701;28;20029;-81
2021/10/17 08:42:51;;;;;;;0.10;0.10;;;;;;;15.53;54.77;102085.16;5021527;28;20022;-81
2021/10/17 08:45:17;;;;;;;0.22;0.22;;;;;;;15.62;54.93;102091.22;5023853;28;20029;-81
2021/10/17 08:47:46;;;;;;;0.25;0.25;;;;;;;15.65;55.30;102092.06;5031772;28;20036;-81
2021/10/17 08:50:14;;;;;;;0.30;0.30;;;;;;;15.61;54.37;102095.69;5014030;28;20028;-80
2021/10/17 08:52:42;;;;;;;0.10;0.10;;;;;;;15.64;54.38;102094.75;5021083;28;20034;-80
2021/10/17 08:55:11;;;;;;;3.00;1.75;;;;;;;15.61;54.62;102089.47;5014673;28;20038;-81
2021/10/17 08:57:38;;;;;;;0.10;0.10;;;;;;;15.60;54.46;102091.28;5011108;28;20124;-81
2021/10/17 09:00:33;;;;;;;0.10;0.10;;;;;;;15.78;54.48;102091.78;5013702;28;20088;-81
2021/10/17 09:03:00;;;;;;;0.43;0.43;;;;;;;15.80;54.42;102093.50;5013349;28;20096;-81
2021/10/17 09:05:44;;;;;;;0.30;0.30;;;;;;;15.96;54.50;102095.88;5013635;28;20038;-81
2021/10/17 09:08:14;;;;;;;0.38;0.38;;;;;;;15.88;53.95;102092.50;5026758;28;20065;-81
2021/10/17 09:10:42;;;;;;;0.10;0.10;;;;;;;15.98;54.21;102086.03;5030746;28;20046;-80
2021/10/17 09:13:12;;;;;;;4.38;0.82;;;;;;;16.03;53.80;102084.13;5017799;28;20485;-81
2021/10/17 09:15:39;;;;;;;0.63;0.63;;;;;;;16.05;53.99;102082.31;5031786;22;20038;-86
2021/10/17 09:18:35;;;;;;;0.20;0.20;;;;;;;16.20;53.78;102086.41;4987632;28;20596;-87
2021/10/17 09:21:06;;;;;;;0.10;0.10;;;;;;;16.16;53.59;102076.69;4990261;28;20351;-87
2021/10/17 09:23:36;;;;;;;4.00;0.45;;;;;;;16.26;53.67;102088.03;4989530;28;20026;-88
2021/10/17 09:26:09;;;;;;;0.43;0.43;;;;;;;16.34;53.25;102086.06;4983293;28;20022;-89
2021/10/17 09:28:36;;;;;;;0.20;0.20;;;;;;;16.42;53.51;102081.41;4988701;28;20022;-90
2021/10/17 09:31:10;;;;;;;1.02;1.02;;;;;;;16.49;52.85;102096.38;4988848;28;20026;-90
2021/10/17 09:34:05;;;;;;;1.48;1.33;;;;;;;16.61;52.95;102091.63;4984862;28;20038;-92
2021/10/17 09:36:33;;;;;;;1.35;1.25;;;;;;;16.55;52.23;102087.34;4983907;28;20485;-89
2021/10/17 09:39:15;;;;;;;2.72;1.30;;;;;;;16.61;51.87;102092.53;4987986;28;20035;-90
2021/10/17 09:41:52;;;;;;;;;;;;;;;16.79;51.84;102084.94;4987716;28;20023;-89
2021/10/17 09:44:36;;;;;;;0.30;0.30;;;;;;;16.75;52.28;102094.84;4986275;28;19997;-91
2021/10/17 09:47:03;;;;;;;0.10;0.10;;;;;;;16.64;51.51;102095.13;4986648;28;20043;-90
2021/10/17 09:49:34;;;;;;;0.20;0.20;;;;;;;16.82;51.58;102096.47;4987658;28;20534;-90
2021/10/17 09:52:28;;;;;;;0.10;0.10;;;;;;;16.91;51.51;102098.03;4988414;28;20474;-91
2021/10/17 09:58:31;;;;;;;0.32;0.32;;;;;;;16.86;51.70;102096.38;4946832;29;20483;-89
2021/10/17 10:01:26;;;;;;;0.10;0.10;;;;;;;16.93;51.58;102092.63;4980816;28;20110;-90
2021/10/17 10:03:54;;;;;;;0.10;0.10;;;;;;;16.93;52.01;102095.31;5005281;28;20050;-88
2021/10/17 10:06:25;;;;;;;0.10;0.10;;;;;;;16.92;51.96;102094.44;4987439;28;20035;-89
2021/10/17 10:09:04;;;;;;;0.20;0.20;;;;;;;17.02;52.22;102092.38;4986279;28;20089;-89
2021/10/17 10:11:32;;;;;;;0.20;0.20;;;;;;;17.10;52.50;102094.88;4986987;28;20465;-89
2021/10/17 10:14:01;;;;;;;0.10;0.10;;;;;;;17.09;51.43;102088.63;4985034;28;20498;-88
2021/10/17 10:16:29;;;;;;;1.27;1.17;;;;;;;17.24;51.62;102086.44;4982853;28;20037;-85
2021/10/17 10:19:00;;;;;;;0.10;0.10;;;;;;;17.38;51.16;102088.72;4984761;28;20437;-85
2021/10/17 10:21:28;;;;;;;0.32;0.32;;;;;;;17.44;50.70;102085.88;4983555;28;20032;-90
2021/10/17 10:23:57;;;;;;;0.32;0.32;;;;;;;17.62;50.39;102088.00;4983055;28;20645;-88
2021/10/17 10:26:26;;;;;;;0.63;0.63;;;;;;;17.78;49.24;102093.78;4995996;28;20117;-90
2021/10/17 10:28:55;;;;;;;0.50;0.50;;;;;;;17.94;49.92;102094.25;4986781;28;20030;-89
2021/10/17 10:31:57;;;;;;;0.15;0.15;;;;;;;18.08;48.09;102096.50;4996383;28;20076;-85
2021/10/17 10:37:26;;;;;;;0.10;0.10;;;;;;;18.15;47.84;102086.44;5080848;27;20485;-91
2021/10/17 10:40:15;;;;;;;0.20;0.20;;;;;;;18.36;48.83;102084.00;5070455;28;20418;-87
2021/10/17 10:42:46;;;;;;;0.40;0.40;;;;;;;18.42;47.88;102090.03;5070362;28;20040;-87
2021/10/17 10:50:48;;;;;;;0.65;0.45;;;;;;;18.54;47.97;102078.00;5070705;27;20959;-87
2021/10/17 10:53:51;;;;;;;0.17;0.17;;;;;;;18.54;47.74;102082.47;5067325;28;20044;-85
2021/10/17 10:59:22;;;;;;;0.00;0.00;;;;;;;18.68;48.47;102090.97;5050664;28;20471;-84
2021/10/17 11:07:40;;;;;;;0.60;0.60;;;;;;;18.64;47.92;102078.56;5111006;27;20391;-88
2021/10/17 11:13:26;;;;;;;0.82;0.82;;;;;;;18.49;47.07;102084.44;5150992;27;20389;-88
2021/10/17 11:16:21;;;;;;;0.40;0.40;;;;;;;18.64;47.04;102086.63;5121768;27;20039;-93
2021/10/17 11:18:55;;;;;;;0.85;0.85;;;;;;;18.46;47.77;102087.25;5093430;28;20036;-88
2021/10/17 11:21:21;;;;;;;0.00;0.00;;;;;;;18.56;47.51;102081.50;5111178;28;20054;-88
2021/10/17 11:23:51;;;;;;;0.30;0.30;;;;;;;18.51;46.56;102082.59;5111367;28;20039;-88
2021/10/17 11:26:17;;;;;;;0.13;0.13;;;;;;;18.52;46.93;102079.84;5110789;28;20028;-88
2021/10/17 11:28:51;;;;;;;0.10;0.10;;;;;;;18.60;46.80;102074.22;5111154;28;20031;-88
2021/10/17 11:31:23;;;;;;;0.10;0.10;;;;;;;18.46;47.03;102074.69;5110707;28;20050;-88
2021/10/17 11:33:50;;;;;;;0.20;0.20;;;;;;;18.33;47.03;102066.19;5110695;28;20505;-88
2021/10/17 11:36:21;;;;;;;0.15;0.15;;;;;;;18.50;48.17;102067.41;5112158;28;20134;-90
2021/10/17 11:39:14;;;;;;;1.40;1.30;;;;;;;18.52;48.42;102065.56;5109464;28;20020;-89
2021/10/17 11:41:45;;;;;;;0.10;0.10;;;;;;;18.40;48.36;102070.41;5100729;28;20024;-89
2021/10/17 11:44:16;;;;;;;0.10;0.10;;;;;;;18.46;48.10;102068.47;5100769;28;20119;-90
2021/10/17 11:46:50;;;;;;;0.65;0.63;;;;;;;18.49;48.13;102062.97;5100677;28;20462;-88
2021/10/17 11:49:31;;;;;;;0.25;0.25;;;;;;;18.47;48.06;102060.34;5101875;28;20486;-87
2021/10/17 11:52:11;;;;;;;0.10;0.10;;;;;;;18.49;48.68;102058.50;5101340;28;20031;-89
2021/10/17 11:54:53;;;;;;;0.28;0.28;;;;;;;18.57;49.15;102064.47;5101649;28;20427;-89